Time;durP1;ratioP1;P1;durP2;ratioP2;P2;SDS_P1;SDS_P2;PMS_P1;PMS_P2;Temp;Humidity;BMP_temperature;BMP_pressure;BME280_temperature;BME280_humidity;BME280_pressure;Samples;Min_cycle;Max_cycle;Signal;HPM_P1;HPM_P2
2023/07/30 00:00:35;;;;;;;5.20;2.50;;;17.10;99.90;;;;;;5060246;28;20204;-85
2023/07/30 00:03:00;;;;;;;2.53;2.20;;;17.10;99.90;;;;;;5041398;28;20177;-85
2023/07/30 00:05:26;;;;;;;3.43;2.33;;;17.20;99.90;;;;;;5042064;28;20183;-85
2023/07/30 00:07:52;;;;;;;2.93;2.20;;;17.10;99.90;;;;;;5040705;28;20166;-85
2023/07/30 00:10:18;;;;;;;5.23;2.50;;;17.10;99.90;;;;;;5059467;28;20174;-85
2023/07/30 00:12:43;;;;;;;3.43;2.03;;;17.00;99.90;;;;;;5058856;28;20627;-86
2023/07/30 00:15:09;;;;;;;3.00;1.90;;;17.10;99.90;;;;;;5041252;28;20176;-85
2023/07/30 00:17:35;;;;;;;5.63;2.13;;;17.00;99.90;;;;;;5041059;28;20189;-85
2023/07/30 00:20:00;;;;;;;3.37;2.27;;;16.90;99.90;;;;;;5041239;28;20292;-86
2023/07/30 00:22:26;;;;;;;3.40;2.20;;;16.90;99.90;;;;;;5058894;28;20251;-85
2023/07/30 00:24:51;;;;;;;4.43;2.13;;;16.90;99.90;;;;;;5042440;28;20265;-85
2023/07/30 00:27:17;;;;;;;2.20;2.00;;;16.90;99.90;;;;;;5044721;28;20170;-85
2023/07/30 00:29:42;;;;;;;2.23;2.03;;;17.00;99.90;;;;;;5062578;28;20173;-85
2023/07/30 00:32:09;;;;;;;4.87;2.60;;;17.00;99.90;;;;;;5062977;28;20277;-85
2023/07/30 00:34:34;;;;;;;2.77;2.30;;;16.90;99.90;;;;;;5062796;28;20269;-85
2023/07/30 00:37:00;;;;;;;3.00;2.20;;;16.90;99.90;;;;;;5062530;28;20216;-85
2023/07/30 00:39:25;;;;;;;2.43;2.20;;;16.90;99.90;;;;;;5062263;28;20198;-85
2023/07/30 00:41:51;;;;;;;2.63;2.40;;;16.90;99.90;;;;;;5061783;28;20219;-86
2023/07/30 00:44:16;;;;;;;3.40;2.30;;;16.80;99.90;;;;;;5062399;28;20177;-85
2023/07/30 00:46:42;;;;;;;2.60;2.40;;;16.90;99.90;;;;;;5061828;28;20169;-85
2023/07/30 00:49:08;;;;;;;5.70;2.57;;;16.90;99.90;;;;;;5061611;28;20181;-85
2023/07/30 00:51:34;;;;;;;3.73;2.40;;;16.80;99.90;;;;;;5042737;28;20210;-85
2023/07/30 00:54:00;;;;;;;3.43;2.37;;;16.80;99.90;;;;;;5061643;28;20181;-85
2023/07/30 00:56:26;;;;;;;3.97;2.50;;;16.80;99.90;;;;;;5042195;28;20184;-85
2023/07/30 00:58:52;;;;;;;5.20;2.40;;;16.80;99.90;;;;;;5042258;28;20197;-85
2023/07/30 01:01:18;;;;;;;4.00;2.43;;;16.70;99.90;;;;;;5043104;28;20193;-85
2023/07/30 01:03:44;;;;;;;2.97;1.97;;;16.70;99.90;;;;;;5062312;28;20170;-85
2023/07/30 01:06:10;;;;;;;3.50;2.30;;;16.70;99.90;;;;;;5043882;28;20176;-85
2023/07/30 01:08:36;;;;;;;4.10;2.43;;;16.70;99.90;;;;;;5062248;28;20184;-85
2023/07/30 01:11:03;;;;;;;3.33;2.47;;;16.70;99.90;;;;;;5061067;28;20251;-85
2023/07/30 01:13:30;;;;;;;4.37;2.00;;;16.70;99.90;;;;;;5061516;28;20173;-85
2023/07/30 01:15:56;;;;;;;2.10;1.90;;;16.60;99.90;;;;;;5061387;28;20165;-85
2023/07/30 01:18:21;;;;;;;3.10;2.20;;;16.60;99.90;;;;;;5061990;28;20201;-85
2023/07/30 01:20:47;;;;;;;3.43;2.07;;;16.60;99.90;;;;;;5042098;28;20197;-85
2023/07/30 01:23:12;;;;;;;3.50;1.90;;;16.50;99.90;;;;;;5060705;28;20177;-86
2023/07/30 01:25:40;;;;;;;2.80;2.50;;;16.50;99.90;;;;;;5042125;28;20586;-85
2023/07/30 01:28:10;;;;;;;6.37;2.37;;;16.50;99.90;;;;;;5061413;28;20182;-85
2023/07/30 01:30:41;;;;;;;5.03;2.50;;;16.50;99.90;;;;;;5060992;28;20209;-85
2023/07/30 01:33:09;;;;;;;3.83;2.10;;;16.50;99.90;;;;;;5060166;28;20252;-85
2023/07/30 01:35:37;;;;;;;6.80;2.30;;;16.50;99.90;;;;;;5060569;28;20180;-84
2023/07/30 01:38:05;;;;;;;4.87;2.30;;;16.40;99.90;;;;;;5041851;28;20181;-87
2023/07/30 01:40:31;;;;;;;3.83;2.10;;;16.40;99.90;;;;;;5061102;28;20204;-85
2023/07/30 01:42:57;;;;;;;5.73;2.43;;;16.40;99.90;;;;;;5042443;28;20178;-86
2023/07/30 01:45:22;;;;;;;5.33;2.20;;;16.40;99.90;;;;;;5041918;28;20174;-84
2023/07/30 01:47:48;;;;;;;2.47;2.07;;;16.30;99.90;;;;;;5060730;28;20170;-84
2023/07/30 01:50:14;;;;;;;3.13;2.10;;;16.30;99.90;;;;;;5060107;28;20615;-85
2023/07/30 01:52:39;;;;;;;4.17;2.50;;;16.20;99.90;;;;;;5061645;28;20249;-84
2023/07/30 01:55:05;;;;;;;4.03;2.23;;;16.20;99.90;;;;;;5061357;28;20188;-85
2023/07/30 01:57:31;;;;;;;5.03;2.10;;;16.20;99.90;;;;;;5043531;28;20694;-85
2023/07/30 01:59:57;;;;;;;5.30;2.20;;;16.20;99.90;;;;;;5042811;28;20197;-85
2023/07/30 02:02:22;;;;;;;2.60;2.07;;;16.10;99.90;;;;;;5043038;28;20197;-85
2023/07/30 02:04:48;;;;;;;3.57;2.10;;;16.20;99.90;;;;;;5041898;28;20174;-85
2023/07/30 02:07:13;;;;;;;5.50;2.33;;;16.30;99.90;;;;;;5058877;28;20195;-85
2023/07/30 02:09:39;;;;;;;2.17;1.97;;;16.30;99.90;;;;;;5058775;28;20269;-84
2023/07/30 02:12:05;;;;;;;3.53;2.00;;;16.30;99.90;;;;;;5041078;28;20205;-84
2023/07/30 02:14:30;;;;;;;4.80;2.30;;;16.40;99.90;;;;;;5041000;28;20268;-85
2023/07/30 02:16:57;;;;;;;5.23;2.30;;;16.40;99.90;;;;;;5040888;28;20296;-85
2023/07/30 02:19:22;;;;;;;5.30;2.10;;;16.40;99.90;;;;;;5040694;28;20225;-85
2023/07/30 02:21:48;;;;;;;2.73;2.10;;;16.40;99.90;;;;;;5040755;28;20251;-85
2023/07/30 02:24:13;;;;;;;4.17;1.97;;;16.30;99.90;;;;;;5041419;28;20560;-85
2023/07/30 02:26:39;;;;;;;4.73;1.90;;;16.40;99.90;;;;;;5041565;28;20174;-85
2023/07/30 02:29:05;;;;;;;2.90;2.00;;;16.30;99.90;;;;;;5040545;28;20320;-85
2023/07/30 02:31:31;;;;;;;4.47;2.00;;;16.30;99.90;;;;;;5059582;28;20213;-85
2023/07/30 02:33:56;;;;;;;2.33;1.80;;;16.20;99.90;;;;;;5058990;28;20178;-85
2023/07/30 02:36:22;;;;;;;2.30;2.10;;;16.20;99.90;;;;;;5041166;28;20174;-85
2023/07/30 02:38:48;;;;;;;4.27;2.10;;;16.20;99.90;;;;;;5059322;28;20205;-86
2023/07/30 02:41:13;;;;;;;7.60;2.20;;;16.20;99.90;;;;;;5058437;28;20251;-85
2023/07/30 02:43:39;;;;;;;10.47;2.10;;;16.20;99.90;;;;;;5059362;28;20224;-85
2023/07/30 02:46:06;;;;;;;2.40;2.10;;;16.20;99.90;;;;;;5040624;28;20169;-85
2023/07/30 02:48:32;;;;;;;2.17;1.73;;;16.20;99.90;;;;;;5058487;28;20207;-85
2023/07/30 02:50:58;;;;;;;3.80;1.90;;;16.20;99.90;;;;;;5058919;28;20602;-85
2023/07/30 02:53:23;;;;;;;3.13;1.80;;;16.20;99.90;;;;;;5059110;28;20174;-85
2023/07/30 02:55:49;;;;;;;4.30;2.30;;;16.30;99.90;;;;;;5040765;28;20199;-85
2023/07/30 02:58:14;;;;;;;2.23;1.90;;;16.30;99.90;;;;;;5040510;28;20228;-85
2023/07/30 03:00:40;;;;;;;4.50;2.23;;;16.40;99.90;;;;;;5059136;28;20225;-85
2023/07/30 03:03:05;;;;;;;2.90;2.20;;;16.40;99.90;;;;;;5041064;28;20177;-85
2023/07/30 03:05:31;;;;;;;2.10;1.90;;;16.40;99.90;;;;;;5041176;28;20707;-85
2023/07/30 03:07:57;;;;;;;3.37;1.87;;;16.50;99.90;;;;;;5059675;28;20224;-85
2023/07/30 03:10:22;;;;;;;3.83;2.10;;;16.50;99.90;;;;;;5042248;28;20197;-84
2023/07/30 03:12:48;;;;;;;2.10;1.90;;;16.50;99.90;;;;;;5060775;28;20193;-85
2023/07/30 03:15:13;;;;;;;2.37;2.03;;;16.40;99.90;;;;;;5060399;28;20237;-85
2023/07/30 03:17:39;;;;;;;2.10;1.80;;;16.40;99.90;;;;;;5041323;28;20174;-85
2023/07/30 03:20:05;;;;;;;2.20;2.00;;;16.30;99.90;;;;;;5041464;28;20201;-85
2023/07/30 03:22:31;;;;;;;3.00;2.20;;;16.30;99.90;;;;;;5041493;28;20193;-85
2023/07/30 03:24:56;;;;;;;3.40;2.20;;;16.30;99.90;;;;;;5059704;28;20166;-85
2023/07/30 03:27:22;;;;;;;3.37;2.20;;;16.30;99.90;;;;;;5060313;28;20534;-85
2023/07/30 03:29:47;;;;;;;3.00;2.03;;;16.30;99.90;;;;;;5059787;28;20166;-85
2023/07/30 03:32:13;;;;;;;3.97;2.20;;;16.30;99.90;;;;;;5058875;28;20209;-85
2023/07/30 03:34:39;;;;;;;3.60;2.60;;;16.30;99.90;;;;;;5040612;28;20196;-86
2023/07/30 03:37:04;;;;;;;4.43;2.17;;;16.30;99.90;;;;;;5040736;28;20174;-85
2023/07/30 03:39:30;;;;;;;3.60;2.17;;;16.40;99.90;;;;;;5041352;28;20207;-85
2023/07/30 03:41:55;;;;;;;3.83;2.27;;;16.40;99.90;;;;;;5059457;28;20197;-86
2023/07/30 03:44:21;;;;;;;4.03;2.60;;;16.40;99.90;;;;;;5040849;28;20184;-85
2023/07/30 03:46:46;;;;;;;2.80;2.43;;;16.30;99.90;;;;;;5041202;28;20178;-86
2023/07/30 03:49:12;;;;;;;4.17;2.20;;;16.30;99.90;;;;;;5040486;28;20177;-85
2023/07/30 03:51:41;;;;;;;3.87;2.03;;;16.30;99.90;;;;;;5040626;28;20212;-85
2023/07/30 03:54:06;;;;;;;3.83;2.40;;;16.40;99.90;;;;;;5058427;28;20553;-85
2023/07/30 03:56:32;;;;;;;2.87;2.17;;;16.40;99.90;;;;;;5040860;28;20166;-85
2023/07/30 03:58:57;;;;;;;3.80;2.50;;;16.40;99.90;;;;;;5040227;28;20202;-85
2023/07/30 04:01:23;;;;;;;6.37;2.40;;;16.40;99.90;;;;;;5043814;28;20194;-85
2023/07/30 04:03:49;;;;;;;2.30;2.00;;;16.40;99.90;;;;;;5044402;28;20181;-86
2023/07/30 04:06:14;;;;;;;4.60;2.60;;;16.50;99.90;;;;;;5062351;28;20173;-85
2023/07/30 04:08:40;;;;;;;4.90;2.73;;;16.50;99.90;;;;;;5061798;28;20170;-85
2023/07/30 04:11:05;;;;;;;2.60;2.40;;;16.50;99.90;;;;;;5043691;28;20204;-85
2023/07/30 04:13:31;;;;;;;3.17;2.17;;;16.50;99.90;;;;;;5062272;28;20181;-85
2023/07/30 04:15:57;;;;;;;3.07;2.00;;;16.50;99.90;;;;;;5043795;28;20177;-85
2023/07/30 04:18:23;;;;;;;6.00;2.23;;;16.60;99.90;;;;;;5043279;28;20243;-85
2023/07/30 04:20:48;;;;;;;3.13;2.17;;;16.50;99.90;;;;;;5062955;28;20193;-85
2023/07/30 04:23:14;;;;;;;2.93;2.00;;;16.50;99.90;;;;;;5043976;28;20558;-85
2023/07/30 04:25:39;;;;;;;5.07;2.03;;;16.50;99.90;;;;;;5044457;28;20173;-85
2023/07/30 04:28:05;;;;;;;4.57;2.37;;;16.40;99.90;;;;;;5062855;28;20174;-86
2023/07/30 04:30:43;;;;;;;3.70;2.20;;;16.40;99.90;;;;;;5063094;28;20246;-86
2023/07/30 04:33:09;;;;;;;2.43;2.23;;;16.40;99.90;;;;;;5044945;28;20173;-85
2023/07/30 04:35:35;;;;;;;2.17;1.97;;;16.50;99.90;;;;;;5063307;28;20177;-85
2023/07/30 04:38:00;;;;;;;2.80;2.10;;;16.50;99.90;;;;;;5063751;28;20227;-85
2023/07/30 04:40:26;;;;;;;4.17;2.50;;;16.60;99.90;;;;;;5044385;28;20177;-85
2023/07/30 04:42:51;;;;;;;4.30;2.37;;;16.60;99.90;;;;;;5062523;28;20180;-85
2023/07/30 04:45:17;;;;;;;4.60;2.47;;;16.60;99.90;;;;;;5062471;28;20181;-85
2023/07/30 04:47:42;;;;;;;4.90;2.40;;;16.60;99.90;;;;;;5044671;28;20185;-86
2023/07/30 04:50:08;;;;;;;2.63;2.20;;;16.70;99.90;;;;;;5044277;28;20306;-85
2023/07/30 04:52:34;;;;;;;3.87;2.50;;;16.70;99.90;;;;;;5044170;28;20199;-85
2023/07/30 04:54:59;;;;;;;2.53;2.33;;;16.70;99.90;;;;;;5044029;28;20565;-85
2023/07/30 04:57:25;;;;;;;2.50;2.30;;;16.70;99.90;;;;;;5044399;28;20177;-85
2023/07/30 04:59:51;;;;;;;3.90;2.30;;;16.70;99.90;;;;;;5044529;28;20201;-86
2023/07/30 05:02:17;;;;;;;3.33;2.30;;;16.70;99.90;;;;;;5062391;28;20192;-85
2023/07/30 05:04:42;;;;;;;4.00;2.30;;;16.70;99.90;;;;;;5062928;28;20307;-85
2023/07/30 05:07:08;;;;;;;3.77;2.30;;;16.80;99.90;;;;;;5043648;28;20183;-85
2023/07/30 05:09:33;;;;;;;3.57;2.40;;;16.80;99.90;;;;;;5043976;28;20173;-83
2023/07/30 05:11:59;;;;;;;2.47;2.27;;;16.90;99.90;;;;;;5060949;28;20197;-82
2023/07/30 05:14:24;;;;;;;3.00;2.53;;;16.90;99.90;;;;;;5042880;28;20264;-82
2023/07/30 05:16:50;;;;;;;2.50;2.30;;;16.90;99.90;;;;;;5043153;28;20616;-82
2023/07/30 05:19:16;;;;;;;2.97;2.33;;;16.90;99.90;;;;;;5043525;28;20226;-82
2023/07/30 05:21:42;;;;;;;3.13;2.20;;;17.00;99.90;;;;;;5060410;28;20211;-84
2023/07/30 05:24:08;;;;;;;2.90;2.50;;;16.90;99.90;;;;;;5043464;28;20178;-82
2023/07/30 05:26:33;;;;;;;2.33;2.13;;;17.00;99.90;;;;;;5043227;28;20632;-83
2023/07/30 05:28:59;;;;;;;2.50;2.30;;;17.00;99.90;;;;;;5062337;28;20181;-83
2023/07/30 05:31:24;;;;;;;2.77;2.40;;;17.00;99.90;;;;;;5028607;28;20223;-82
2023/07/30 05:33:50;;;;;;;5.07;2.70;;;17.00;99.90;;;;;;5030619;28;20182;-81
2023/07/30 05:36:15;;;;;;;2.73;2.53;;;17.00;99.90;;;;;;5023955;28;20201;-83
2023/07/30 05:38:41;;;;;;;2.97;2.30;;;17.00;99.90;;;;;;5023645;28;20228;-82
2023/07/30 05:41:06;;;;;;;4.20;2.50;;;17.10;99.90;;;;;;5040369;28;20206;-83
2023/07/30 05:43:32;;;;;;;4.67;2.50;;;17.10;99.90;;;;;;5041324;28;20170;-82
2023/07/30 05:45:57;;;;;;;5.13;2.60;;;17.20;99.90;;;;;;5034272;28;20171;-84
2023/07/30 05:48:23;;;;;;;2.53;2.30;;;17.20;99.90;;;;;;5022421;28;20523;-82
2023/07/30 05:50:49;;;;;;;3.00;2.50;;;17.20;99.90;;;;;;5005827;28;20685;-81
2023/07/30 05:53:15;;;;;;;3.27;2.47;;;17.20;99.90;;;;;;5029853;28;20209;-83
2023/07/30 05:55:40;;;;;;;4.23;2.50;;;17.30;99.90;;;;;;5037812;28;20190;-81
2023/07/30 05:58:06;;;;;;;3.13;2.50;;;17.30;99.90;;;;;;5036093;28;20182;-86
2023/07/30 06:00:31;;;;;;;2.67;2.47;;;17.30;99.90;;;;;;5018969;28;20198;-84
2023/07/30 06:02:57;;;;;;;2.80;2.60;;;17.40;99.90;;;;;;5037152;28;20186;-83
2023/07/30 06:05:22;;;;;;;2.77;2.30;;;17.40;99.90;;;;;;5036910;28;20175;-84
2023/07/30 06:07:48;;;;;;;3.70;2.53;;;17.50;99.90;;;;;;5037467;28;20190;-86
2023/07/30 06:10:13;;;;;;;2.40;2.20;;;17.50;99.90;;;;;;5018992;28;20189;-86
2023/07/30 06:12:39;;;;;;;3.17;2.40;;;17.70;99.90;;;;;;5017948;28;20186;-84
2023/07/30 06:15:06;;;;;;;2.53;2.33;;;17.70;99.90;;;;;;5034939;28;20227;-86
2023/07/30 06:17:32;;;;;;;3.77;2.40;;;17.70;99.90;;;;;;5036359;28;20182;-85
2023/07/30 06:19:58;;;;;;;4.27;2.40;;;17.80;99.90;;;;;;5018011;28;20611;-85
2023/07/30 06:22:23;;;;;;;2.47;2.20;;;17.80;99.90;;;;;;5017689;28;20213;-84
2023/07/30 06:24:49;;;;;;;2.90;2.37;;;17.80;99.90;;;;;;5018354;28;20178;-84
2023/07/30 06:27:14;;;;;;;3.87;2.30;;;17.80;99.90;;;;;;5036856;28;20274;-84
2023/07/30 06:29:40;;;;;;;3.70;2.30;;;17.80;99.90;;;;;;5036961;28;20178;-84
2023/07/30 06:32:06;;;;;;;3.50;2.40;;;17.80;99.90;;;;;;5020328;28;20264;-81
2023/07/30 06:34:31;;;;;;;2.53;2.10;;;17.90;99.90;;;;;;5018803;28;20660;-83
2023/07/30 06:36:57;;;;;;;2.50;2.20;;;17.90;99.90;;;;;;5036177;28;20174;-83
2023/07/30 06:39:22;;;;;;;2.43;2.17;;;18.00;99.90;;;;;;5018976;28;20705;-83
2023/07/30 06:41:48;;;;;;;4.00;2.10;;;18.00;99.90;;;;;;5019433;28;20201;-83
2023/07/30 06:44:13;;;;;;;3.30;2.20;;;18.10;99.90;;;;;;5037913;28;20167;-83
2023/07/30 06:46:39;;;;;;;4.10;2.27;;;18.10;99.90;;;;;;5037028;28;20178;-83
2023/07/30 06:49:04;;;;;;;3.17;2.40;;;18.20;99.90;;;;;;5036638;28;20178;-83
2023/07/30 06:51:30;;;;;;;2.50;2.10;;;18.20;99.90;;;;;;5036871;28;20617;-83
2023/07/30 06:53:56;;;;;;;2.38;2.15;;;18.30;99.90;;;;;;5037230;28;20192;-83
2023/07/30 06:56:22;;;;;;;4.07;1.90;;;18.40;99.90;;;;;;5037725;28;20185;-83
2023/07/30 06:58:47;;;;;;;3.33;2.00;;;18.40;99.90;;;;;;5037010;28;20255;-82
2023/07/30 07:01:13;;;;;;;2.53;1.83;;;18.50;99.90;;;;;;5019078;28;20560;-83
2023/07/30 07:03:38;;;;;;;4.82;1.90;;;18.60;99.90;;;;;;5036451;28;20175;-83
2023/07/30 07:06:04;;;;;;;2.22;1.77;;;18.60;99.90;;;;;;5036280;28;20179;-83
2023/07/30 07:08:30;;;;;;;4.90;2.20;;;18.70;99.90;;;;;;5002203;28;20177;-82
2023/07/30 07:10:56;;;;;;;2.20;2.00;;;18.80;99.90;;;;;;5014836;28;20195;-83
2023/07/30 07:13:22;;;;;;;2.67;2.17;;;19.00;99.90;;;;;;5015194;28;20174;-83
2023/07/30 07:15:47;;;;;;;2.53;1.92;;;19.00;99.90;;;;;;5014704;28;20181;-82
2023/07/30 07:18:13;;;;;;;1.73;1.63;;;19.00;99.90;;;;;;5016243;28;20590;-83
2023/07/30 07:20:38;;;;;;;2.28;2.08;;;19.00;99.90;;;;;;5014542;28;20198;-83
2023/07/30 07:23:04;;;;;;;2.42;2.08;;;19.00;99.90;;;;;;5014493;28;20179;-83
2023/07/30 07:25:30;;;;;;;2.88;2.03;;;19.00;99.90;;;;;;5014985;28;20179;-83
2023/07/30 07:27:55;;;;;;;5.10;2.17;;;19.00;99.90;;;;;;5014980;28;20167;-83
2023/07/30 07:30:21;;;;;;;3.38;2.00;;;19.10;99.90;;;;;;5015593;28;20175;-83
2023/07/30 07:32:50;;;;;;;3.42;2.00;;;19.10;99.90;;;;;;5016014;28;20167;-82
2023/07/30 07:35:20;;;;;;;2.20;2.00;;;19.20;99.90;;;;;;5015196;28;20206;-83
2023/07/30 07:37:45;;;;;;;3.78;2.20;;;19.20;99.90;;;;;;5015893;28;20665;-82
2023/07/30 07:40:11;;;;;;;5.25;2.03;;;19.30;99.90;;;;;;5016288;28;20199;-81
2023/07/30 07:42:38;;;;;;;2.20;1.80;;;19.40;99.90;;;;;;5016247;28;20657;-83
2023/07/30 07:45:05;;;;;;;4.47;2.22;;;19.50;99.90;;;;;;5014536;28;20671;-83
2023/07/30 07:47:30;;;;;;;2.65;1.70;;;19.60;99.90;;;;;;5014074;28;20181;-81
2023/07/30 07:49:56;;;;;;;2.80;1.90;;;19.60;1.00;;;;;;5035627;28;20183;-83
2023/07/30 07:52:21;;;;;;;1.85;1.67;;;19.70;1.00;;;;;;5015152;28;20676;-82
2023/07/30 07:54:47;;;;;;;3.08;1.90;;;19.70;1.00;;;;;;5028231;28;20187;-81
2023/07/30 07:57:13;;;;;;;4.82;1.73;;;19.80;1.00;;;;;;5005605;28;20166;-81
2023/07/30 07:59:38;;;;;;;2.00;1.50;;;19.90;1.00;;;;;;5003587;28;20658;-80
2023/07/30 08:02:05;;;;;;;1.83;1.70;;;20.00;1.00;;;;;;5032757;28;20212;-81
2023/07/30 08:04:30;;;;;;;3.90;2.10;;;20.00;1.00;;;;;;5001689;28;20162;-84
2023/07/30 08:06:59;;;;;;;3.15;1.80;;;20.10;1.00;;;;;;5019277;28;20313;-81
2023/07/30 08:09:25;;;;;;;2.65;1.80;;;20.20;1.00;;;;;;5027862;28;20195;-83
2023/07/30 08:11:50;;;;;;;2.22;1.90;;;20.30;1.00;;;;;;5016936;28;20198;-80
2023/07/30 08:14:16;;;;;;;3.20;1.70;;;20.30;1.00;;;;;;5034894;28;20202;-81
2023/07/30 08:16:42;;;;;;;1.85;1.55;;;20.40;1.00;;;;;;5034481;28;20680;-83
2023/07/30 08:19:07;;;;;;;4.72;2.17;;;20.40;1.00;;;;;;5016693;28;20197;-83
2023/07/30 08:21:33;;;;;;;4.72;1.90;;;20.60;1.00;;;;;;5008875;28;20187;-82
2023/07/30 08:23:58;;;;;;;3.83;1.90;;;20.50;1.00;;;;;;5015147;28;20167;-81
2023/07/30 08:26:24;;;;;;;2.75;1.70;;;20.50;1.00;;;;;;5000905;28;20175;-82
2023/07/30 08:28:49;;;;;;;3.88;1.77;;;20.30;1.00;;;;;;5004256;28;20211;-84
2023/07/30 08:31:15;;;;;;;2.25;1.60;;;20.30;1.00;;;;;;5025204;28;20214;-83
2023/07/30 08:33:40;;;;;;;3.08;1.70;;;20.30;1.00;;;;;;5017780;28;20174;-83
2023/07/30 08:36:06;;;;;;;3.28;1.95;;;20.20;1.00;;;;;;5017687;28;20213;-83
2023/07/30 08:38:31;;;;;;;3.42;1.75;;;20.10;1.00;;;;;;5018190;28;20209;-83
2023/07/30 08:40:57;;;;;;;2.50;1.55;;;20.20;1.00;;;;;;5035292;28;20249;-83
2023/07/30 08:43:23;;;;;;;2.50;1.52;;;20.30;1.00;;;;;;5033916;28;20178;-81
2023/07/30 08:45:48;;;;;;;2.92;1.77;;;20.40;1.00;;;;;;5036000;28;20167;-83
2023/07/30 08:48:14;;;;;;;4.10;1.63;;;20.50;99.90;;;;;;5036460;28;20240;-80
2023/07/30 08:50:40;;;;;;;2.95;1.70;;;20.50;1.00;;;;;;5037748;28;20221;-81
2023/07/30 08:53:07;;;;;;;3.65;1.58;;;20.50;1.00;;;;;;5028321;28;20183;-80
2023/07/30 08:55:34;;;;;;;4.15;1.70;;;20.50;99.90;;;;;;5020441;28;20175;-85
2023/07/30 08:58:04;;;;;;;4.82;1.60;;;20.50;99.90;;;;;;5017598;28;20177;-84
2023/07/30 09:00:36;;;;;;;3.85;1.48;;;20.40;99.90;;;;;;5020778;28;20198;-81
2023/07/30 09:03:04;;;;;;;2.78;1.63;;;20.40;13.10;;;;;;5038856;28;20158;-83
2023/07/30 09:05:30;;;;;;;3.47;1.90;;;20.30;1.00;;;;;;5020544;28;20166;-80
2023/07/30 09:07:56;;;;;;;3.30;1.95;;;20.20;1.00;;;;;;5019485;28;20170;-79
2023/07/30 09:10:22;;;;;;;3.03;1.75;;;20.10;1.00;;;;;;5037616;28;20178;-79
2023/07/30 09:12:56;;;;;;;3.05;1.83;;;20.00;1.00;;;;;;5021532;28;20185;-79
2023/07/30 09:15:38;;;;;;;2.80;2.00;;;19.80;1.00;;;;;;5022566;28;20261;-80
2023/07/30 09:18:05;;;;;;;3.25;1.90;;;19.70;2.60;;;;;;5022155;28;20192;-80
2023/07/30 09:20:41;;;;;;;2.45;1.88;;;19.70;36.30;;;;;;5038814;28;20218;-80
2023/07/30 09:23:08;;;;;;;2.90;1.95;;;19.60;99.80;;;;;;5038387;28;20184;-85
2023/07/30 09:25:34;;;;;;;2.30;1.65;;;19.60;75.70;;;;;;5009333;28;20602;-83
2023/07/30 09:28:00;;;;;;;1.88;1.63;;;19.60;93.30;;;;;;5016905;28;20208;-81
2023/07/30 09:30:29;;;;;;;1.83;1.73;;;19.60;99.90;;;;;;5018366;28;20186;-80
2023/07/30 09:32:57;;;;;;;2.10;1.90;;;19.60;99.90;;;;;;5024242;28;20208;-81
2023/07/30 09:35:25;;;;;;;2.65;2.05;;;19.70;99.90;;;;;;5017237;28;20212;-79
2023/07/30 09:38:04;;;;;;;2.63;1.70;;;19.70;99.90;;;;;;4999768;28;20279;-80
2023/07/30 09:40:34;;;;;;;2.00;1.80;;;19.80;46.30;;;;;;5008289;28;20198;-81
2023/07/30 09:43:03;;;;;;;2.22;1.70;;;19.80;1.00;;;;;;5017763;28;20171;-80
2023/07/30 09:45:32;;;;;;;1.75;1.65;;;19.90;1.00;;;;;;5018448;28;20195;-81
2023/07/30 09:47:58;;;;;;;2.67;1.60;;;20.00;1.00;;;;;;5002542;28;20174;-80
2023/07/30 09:50:23;;;;;;;1.92;1.60;;;20.10;1.00;;;;;;5018266;28;20543;-79
2023/07/30 09:52:49;;;;;;;2.50;1.30;;;20.10;1.00;;;;;;4998774;28;20555;-80
2023/07/30 09:55:15;;;;;;;4.05;2.15;;;20.20;1.00;;;;;;4998944;28;20251;-81
2023/07/30 09:57:41;;;;;;;2.22;1.98;;;20.30;1.00;;;;;;4998201;28;20175;-81
2023/07/30 10:00:11;;;;;;;3.90;2.97;;;20.40;1.00;;;;;;4998305;28;20226;-81
2023/07/30 10:02:43;;;;;;;1.30;1.20;;;20.50;1.00;;;;;;5001008;28;20247;-79
2023/07/30 10:05:14;;;;;;;1.45;1.30;;;20.70;99.90;;;;;;5023584;28;20179;-80
2023/07/30 10:07:59;;;;;;;1.30;1.17;;;21.00;99.90;;;;;;4999042;28;20165;-84
2023/07/30 10:10:27;;;;;;;4.75;1.38;;;21.30;99.90;;;;;;5004162;28;20160;-81
2023/07/30 10:12:55;;;;;;;2.42;1.67;;;21.40;1.00;;;;;;5020507;28;20183;-80
2023/07/30 10:15:23;;;;;;;2.88;1.52;;;21.40;99.90;;;;;;5015932;28;20569;-80
2023/07/30 10:17:51;;;;;;;1.83;1.60;;;21.40;1.00;;;;;;4997632;28;20179;-79
2023/07/30 10:20:28;;;;;;;3.03;1.52;;;21.40;99.90;;;;;;5015776;28;20206;-78
2023/07/30 10:22:55;;;;;;;1.52;1.30;;;21.50;1.00;;;;;;5004160;28;20171;-80
2023/07/30 10:25:26;;;;;;;3.00;1.30;;;21.50;1.00;;;;;;5009205;28;20197;-82
2023/07/30 10:27:52;;;;;;;2.10;1.60;;;21.60;99.90;;;;;;5037065;28;20166;-81
2023/07/30 10:30:21;;;;;;;2.08;1.48;;;21.50;99.90;;;;;;5037348;28;20178;-81
2023/07/30 10:32:57;;;;;;;1.40;1.30;;;21.40;99.90;;;;;;5073808;23;20240;-84
2023/07/30 10:35:48;;;;;;;2.67;1.50;;;21.40;99.90;;;;;;5035538;28;20178;-83
2023/07/30 10:38:14;;;;;;;3.13;1.45;;;21.50;1.00;;;;;;5034206;28;20189;-83
2023/07/30 10:40:40;;;;;;;2.53;1.50;;;21.60;99.90;;;;;;5051319;28;20235;-82
2023/07/30 10:43:16;;;;;;;2.42;1.40;;;21.60;99.90;;;;;;5054638;28;20296;-82
2023/07/30 10:45:51;;;;;;;2.20;1.40;;;21.60;99.90;;;;;;5041043;28;20181;-82
2023/07/30 10:48:17;;;;;;;2.47;1.67;;;21.50;99.90;;;;;;5015999;28;20649;-81
2023/07/30 10:50:48;;;;;;;1.73;1.42;;;21.40;1.00;;;;;;5036158;28;20700;-82
2023/07/30 10:53:15;;;;;;;1.88;1.60;;;21.50;99.90;;;;;;5035678;28;20178;-82
2023/07/30 10:55:41;;;;;;;1.70;1.60;;;21.40;99.90;;;;;;5035666;28;20218;-82
2023/07/30 10:58:06;;;;;;;1.90;1.60;;;21.30;1.00;;;;;;5017959;28;20293;-81
2023/07/30 11:00:32;;;;;;;2.45;1.42;;;21.30;1.00;;;;;;5054635;28;20190;-81
2023/07/30 11:02:57;;;;;;;2.13;1.80;;;21.30;99.90;;;;;;5056802;28;20198;-81
2023/07/30 11:05:24;;;;;;;2.10;1.50;;;21.10;1.00;;;;;;5056396;28;20165;-83
2023/07/30 11:07:51;;;;;;;1.92;1.45;;;21.00;99.90;;;;;;5055338;28;20549;-83
2023/07/30 11:10:17;;;;;;;1.95;1.65;;;20.90;1.00;;;;;;5053542;28;20185;-83
2023/07/30 11:12:42;;;;;;;1.85;1.63;;;20.90;99.90;;;;;;5056314;28;20253;-83
2023/07/30 11:15:09;;;;;;;2.95;1.67;;;20.90;1.00;;;;;;5054981;28;20546;-82
2023/07/30 11:17:35;;;;;;;2.38;1.60;;;20.80;99.90;;;;;;5054827;28;20177;-82
2023/07/30 11:20:00;;;;;;;1.50;1.40;;;20.80;1.00;;;;;;5056440;28;20197;-83
2023/07/30 11:22:31;;;;;;;2.65;1.50;;;20.70;99.90;;;;;;5055331;28;20356;-82
2023/07/30 11:24:57;;;;;;;4.65;1.60;;;20.70;1.00;;;;;;5055088;28;20249;-82
2023/07/30 11:27:23;;;;;;;3.45;1.95;;;20.50;1.00;;;;;;5056921;28;20174;-83
2023/07/30 11:29:56;;;;;;;1.55;1.45;;;20.40;1.00;;;;;;5055302;28;20174;-82
2023/07/30 11:32:25;;;;;;;6.00;1.70;;;20.30;1.00;;;;;;5055553;28;20296;-82
2023/07/30 11:34:53;;;;;;;2.35;1.55;;;20.10;1.00;;;;;;5055569;28;20253;-82
2023/07/30 11:37:19;;;;;;;2.55;1.42;;;19.50;99.90;;;;;;5055619;28;20233;-83
2023/07/30 11:39:44;;;;;;;5.38;1.30;;;19.10;99.90;;;;;;5034562;28;20201;-82
2023/07/30 11:42:10;;;;;;;3.90;1.00;;;18.80;99.90;;;;;;5015502;28;20190;-83
2023/07/30 11:44:38;;;;;;;1.63;0.90;;;17.90;99.90;;;;;;5026640;28;20177;-84
2023/07/30 11:47:04;;;;;;;0.80;0.70;;;17.30;99.90;;;;;;5034541;28;20173;-83
2023/07/30 11:49:30;;;;;;;1.10;0.77;;;17.20;99.90;;;;;;5034880;28;20287;-84
2023/07/30 11:52:09;;;;;;;0.90;0.70;;;17.00;99.90;;;;;;5052934;28;20240;-84
2023/07/30 11:54:34;;;;;;;0.70;0.70;;;17.10;99.90;;;;;;5052966;28;20272;-84
2023/07/30 11:57:00;;;;;;;1.30;0.97;;;17.00;99.90;;;;;;5051746;28;20198;-84
2023/07/30 11:59:26;;;;;;;0.80;0.80;;;17.00;99.90;;;;;;5031513;28;20200;-84
2023/07/30 12:01:52;;;;;;;0.80;0.80;;;17.00;99.90;;;;;;5025586;28;20240;-84
2023/07/30 12:04:17;;;;;;;1.40;1.00;;;16.80;99.90;;;;;;5016791;28;20185;-84
2023/07/30 12:06:45;;;;;;;2.43;1.00;;;16.70;99.90;;;;;;5014472;28;20170;-85
2023/07/30 12:09:12;;;;;;;1.03;0.90;;;16.70;99.90;;;;;;5030515;28;20722;-84
2023/07/30 12:11:58;;;;;;;1.37;1.00;;;16.80;99.90;;;;;;5050380;28;20200;-84
2023/07/30 12:14:48;;;;;;;1.67;1.03;;;16.90;99.90;;;;;;5050163;28;20169;-85
2023/07/30 12:17:14;;;;;;;2.20;1.07;;;17.00;99.90;;;;;;5024689;28;20581;-84
2023/07/30 12:19:40;;;;;;;1.70;1.10;;;17.00;99.90;;;;;;5015166;28;20209;-85
2023/07/30 12:22:06;;;;;;;1.50;1.00;;;17.10;99.90;;;;;;5016662;28;20308;-85
2023/07/30 12:24:31;;;;;;;3.70;1.37;;;17.20;99.90;;;;;;5033072;28;20265;-85
2023/07/30 12:26:57;;;;;;;1.97;1.10;;;17.40;99.90;;;;;;5035641;28;20170;-85
2023/07/30 12:29:23;;;;;;;1.57;1.20;;;17.70;99.90;;;;;;5034756;28;20182;-85
2023/07/30 12:31:51;;;;;;;1.70;1.10;;;18.00;99.90;;;;;;5034391;28;20224;-85
2023/07/30 12:34:17;;;;;;;1.77;1.20;;;18.20;99.90;;;;;;5017207;28;20186;-84
2023/07/30 12:36:42;;;;;;;1.77;1.03;;;18.40;99.90;;;;;;5017430;28;20242;-85
2023/07/30 12:39:08;;;;;;;1.07;0.97;;;18.50;99.90;;;;;;5018075;28;20206;-85
2023/07/30 12:41:33;;;;;;;2.10;1.10;;;18.50;99.90;;;;;;5035337;28;20281;-86
2023/07/30 12:43:59;;;;;;;2.60;1.00;;;18.50;99.90;;;;;;5017590;28;20178;-84